Time;durP1;ratioP1;P1;durP2;ratioP2;P2;SDS_P1;SDS_P2;PMS_P1;PMS_P2;Temp;Humidity;BMP_temperature;BMP_pressure;BME280_temperature;BME280_humidity;BME280_pressure;Samples;Min_cycle;Max_cycle;Signal;HPM_P1;HPM_P2
2022/05/20 00:01:45;;;;;;;4.18;1.75;;;10.60;97.50;;;;;;6206787;23;20015;-78
2022/05/20 00:04:11;;;;;;;3.67;2.05;;;10.70;97.40;;;;;;6205581;23;20058;-79
2022/05/20 00:06:36;;;;;;;3.03;1.90;;;10.70;97.40;;;;;;6206859;23;20079;-79
2022/05/20 00:09:03;;;;;;;6.35;2.33;;;10.70;97.30;;;;;;6205819;23;20000;-79
2022/05/20 00:11:29;;;;;;;4.90;2.50;;;10.70;97.50;;;;;;6207245;23;20114;-79
2022/05/20 00:13:55;;;;;;;3.80;2.22;;;10.80;97.50;;;;;;6206173;23;20390;-81
2022/05/20 00:16:20;;;;;;;5.65;1.77;;;10.90;97.60;;;;;;6205695;23;20001;-80
2022/05/20 00:18:46;;;;;;;3.10;2.10;;;11.10;97.40;;;;;;6205275;23;20033;-80
2022/05/20 00:21:12;;;;;;;2.85;2.10;;;11.30;97.10;;;;;;6206666;23;20004;-80
2022/05/20 00:23:38;;;;;;;4.18;2.42;;;11.30;96.80;;;;;;6205199;23;20469;-79
2022/05/20 00:26:03;;;;;;;2.78;1.55;;;11.30;96.80;;;;;;6207182;23;20009;-80
2022/05/20 00:28:29;;;;;;;4.88;1.63;;;11.10;96.50;;;;;;6180300;23;20385;-79
2022/05/20 00:31:05;;;;;;;5.10;1.77;;;11.10;96.70;;;;;;6207479;23;20009;-79
2022/05/20 00:33:31;;;;;;;2.33;1.83;;;11.00;96.80;;;;;;6205206;23;20004;-80
2022/05/20 00:35:57;;;;;;;3.13;1.83;;;10.90;97.10;;;;;;6205813;23;20860;-78
2022/05/20 00:38:24;;;;;;;2.78;1.70;;;10.90;97.40;;;;;;6206205;23;20013;-78
2022/05/20 00:40:52;;;;;;;1.73;1.27;;;10.90;97.50;;;;;;6206503;23;20093;-79
2022/05/20 00:43:29;;;;;;;3.85;1.33;;;10.80;96.70;;;;;;6206090;23;20021;-79
2022/05/20 00:46:01;;;;;;;2.72;1.27;;;10.60;97.10;;;;;;6206143;23;20004;-79
2022/05/20 00:48:28;;;;;;;1.60;1.50;;;10.50;97.50;;;;;;6206183;23;20402;-83
2022/05/20 00:51:14;;;;;;;3.15;1.42;;;10.50;97.50;;;;;;6205917;23;20226;-85
2022/05/20 00:54:07;;;;;;;1.83;1.33;;;10.50;97.40;;;;;;6204892;23;20071;-84
2022/05/20 00:56:48;;;;;;;3.92;1.60;;;10.40;97.70;;;;;;6206643;23;20501;-83
2022/05/20 00:59:18;;;;;;;2.22;1.60;;;10.40;97.70;;;;;;6207844;23;20016;-80
2022/05/20 01:01:47;;;;;;;2.83;1.38;;;10.40;97.80;;;;;;6208422;23;20000;-84
2022/05/20 01:04:15;;;;;;;1.95;1.50;;;10.40;97.50;;;;;;6207855;23;20028;-84
2022/05/20 01:06:41;;;;;;;1.85;1.55;;;10.40;97.60;;;;;;6207804;23;20079;-82
2022/05/20 01:09:06;;;;;;;1.92;1.25;;;10.40;97.60;;;;;;6207977;23;20036;-82
2022/05/20 01:11:32;;;;;;;1.50;1.15;;;10.40;97.60;;;;;;6208793;23;20024;-81
2022/05/20 01:13:58;;;;;;;1.77;1.00;;;10.40;97.80;;;;;;6208612;23;20015;-80
2022/05/20 01:16:23;;;;;;;4.45;1.30;;;10.30;97.60;;;;;;6208152;23;20013;-88
2022/05/20 01:18:53;;;;;;;2.90;1.30;;;10.10;97.80;;;;;;6208197;23;20386;-84
2022/05/20 01:21:19;;;;;;;1.50;1.40;;;10.20;98.20;;;;;;6208136;23;20007;-83
2022/05/20 01:23:45;;;;;;;1.95;1.63;;;10.30;98.40;;;;;;6206837;23;20016;-83
2022/05/20 01:26:11;;;;;;;2.92;1.67;;;10.20;98.50;;;;;;6207999;23;20349;-83
2022/05/20 01:28:37;;;;;;;4.05;1.33;;;10.30;98.80;;;;;;6208995;23;20014;-81
2022/05/20 01:31:11;;;;;;;1.42;1.23;;;10.40;98.20;;;;;;6182202;23;20019;-81
2022/05/20 01:33:48;;;;;;;4.70;1.40;;;10.40;98.40;;;;;;6207866;23;20032;-81
2022/05/20 01:36:25;;;;;;;4.22;1.48;;;10.40;98.30;;;;;;6207764;23;20008;-84
2022/05/20 01:38:52;;;;;;;1.10;0.88;;;10.40;98.30;;;;;;6207088;23;20032;-82
2022/05/20 01:41:24;;;;;;;2.42;1.20;;;10.40;98.30;;;;;;6207535;23;20032;-78
2022/05/20 01:44:11;;;;;;;2.00;1.25;;;10.30;97.40;;;;;;6206219;23;20393;-81
2022/05/20 01:47:03;;;;;;;1.92;0.80;;;10.20;97.40;;;;;;6209180;23;20004;-82
2022/05/20 01:49:54;;;;;;;2.92;0.88;;;10.10;97.70;;;;;;6206352;23;20047;-83
2022/05/20 01:52:42;;;;;;;8.52;1.52;;;10.10;98.00;;;;;;6208057;23;20000;-82
2022/05/20 01:55:36;;;;;;;6.57;1.20;;;10.00;98.10;;;;;;6208235;23;20000;-82
2022/05/20 01:58:05;;;;;;;1.50;1.30;;;10.00;98.20;;;;;;6208785;23;20135;-82
2022/05/20 02:00:34;;;;;;;1.40;1.00;;;10.00;98.30;;;;;;6207405;23;20067;-82
2022/05/20 02:03:27;;;;;;;1.45;1.25;;;10.00;98.70;;;;;;6206450;23;20379;-82
2022/05/20 02:06:08;;;;;;;3.33;1.13;;;10.00;99.00;;;;;;6205395;23;20021;-82
2022/05/20 02:08:47;;;;;;;1.57;1.37;;;10.00;98.90;;;;;;6203996;23;20142;-81
2022/05/20 02:11:36;;;;;;;1.80;1.30;;;10.00;99.00;;;;;;6205823;23;20011;-82
2022/05/20 02:14:18;;;;;;;1.63;1.30;;;10.10;98.80;;;;;;6205665;23;20005;-82
2022/05/20 02:16:49;;;;;;;1.75;1.25;;;10.10;98.70;;;;;;6208784;23;20005;-82
2022/05/20 02:19:19;;;;;;;2.00;1.17;;;10.10;98.70;;;;;;6206925;23;20016;-82
2022/05/20 02:21:49;;;;;;;2.25;1.13;;;10.10;98.50;;;;;;6208314;23;20028;-81
2022/05/20 02:24:19;;;;;;;3.95;1.63;;;10.00;98.70;;;;;;6207819;23;20442;-81
2022/05/20 02:26:49;;;;;;;2.47;1.33;;;10.10;98.80;;;;;;6208632;23;20000;-83
2022/05/20 02:29:20;;;;;;;2.78;1.25;;;10.10;98.90;;;;;;6207490;23;20017;-83
2022/05/20 02:31:59;;;;;;;2.95;1.20;;;10.20;98.90;;;;;;6208355;23;20000;-82
2022/05/20 02:34:25;;;;;;;2.17;1.50;;;10.30;98.70;;;;;;6207597;23;20019;-83
2022/05/20 02:36:50;;;;;;;1.52;1.30;;;10.30;98.80;;;;;;6208723;23;20323;-83
2022/05/20 02:39:16;;;;;;;1.63;1.52;;;10.30;99.00;;;;;;6207814;23;20513;-82
2022/05/20 02:41:46;;;;;;;3.20;1.17;;;10.20;98.90;;;;;;6207771;23;20001;-82
2022/05/20 02:44:12;;;;;;;2.33;1.42;;;10.20;98.90;;;;;;6208303;23;20015;-83
2022/05/20 02:46:39;;;;;;;2.30;1.50;;;10.20;98.60;;;;;;6207402;23;20080;-83
2022/05/20 02:49:06;;;;;;;4.03;1.60;;;10.20;98.80;;;;;;6207655;23;20448;-84
2022/05/20 02:51:31;;;;;;;1.40;1.30;;;10.20;99.00;;;;;;6208548;23;19993;-82
2022/05/20 02:53:57;;;;;;;4.70;2.00;;;10.20;99.00;;;;;;6205427;23;20063;-83
2022/05/20 02:56:23;;;;;;;1.50;1.20;;;10.20;99.00;;;;;;6206990;23;20004;-81
2022/05/20 03:04:18;;;;;;;4.00;1.70;;;10.20;98.70;;;;;;6207097;23;20019;-83
2022/05/20 03:06:49;;;;;;;2.78;1.33;;;10.10;99.10;;;;;;6204974;23;20008;-83
2022/05/20 03:09:21;;;;;;;3.70;1.63;;;10.10;99.20;;;;;;6203616;23;20096;-82
2022/05/20 03:11:47;;;;;;;2.55;1.58;;;10.20;99.20;;;;;;6204935;23;20387;-83
2022/05/20 03:14:15;;;;;;;5.20;1.70;;;10.20;99.20;;;;;;6204644;23;20001;-82
2022/05/20 03:16:41;;;;;;;2.95;1.17;;;10.20;99.30;;;;;;6205735;23;20001;-81
2022/05/20 03:19:07;;;;;;;7.38;1.65;;;10.30;99.20;;;;;;6204194;23;20023;-81
2022/05/20 03:21:35;;;;;;;3.05;1.30;;;10.10;99.30;;;;;;6205104;23;20343;-81
2022/05/20 03:24:01;;;;;;;3.88;1.30;;;10.00;99.50;;;;;;6178430;23;20531;-82
2022/05/20 03:26:28;;;;;;;2.90;1.50;;;9.90;99.70;;;;;;6204575;23;20036;-83
2022/05/20 03:28:54;;;;;;;3.13;1.40;;;10.00;99.90;;;;;;6204952;23;20005;-83
2022/05/20 03:31:19;;;;;;;1.30;1.20;;;10.10;99.80;;;;;;6205786;23;20014;-83
2022/05/20 03:33:46;;;;;;;1.90;1.00;;;10.20;99.80;;;;;;6207570;23;20023;-82
2022/05/20 03:36:12;;;;;;;1.83;1.10;;;10.10;99.10;;;;;;6206799;23;20005;-82
2022/05/20 03:38:38;;;;;;;1.88;1.05;;;10.00;99.30;;;;;;6207530;23;20090;-82
2022/05/20 03:41:04;;;;;;;4.07;1.30;;;9.90;99.80;;;;;;6206701;23;20437;-81
2022/05/20 03:43:30;;;;;;;3.13;1.20;;;10.00;99.70;;;;;;6207364;23;20019;-80
2022/05/20 03:45:56;;;;;;;3.85;1.50;;;10.00;99.80;;;;;;6207856;23;20377;-81
2022/05/20 03:48:22;;;;;;;3.22;1.20;;;10.00;99.80;;;;;;6207639;23;20751;-81
2022/05/20 03:50:48;;;;;;;3.28;1.70;;;10.10;99.90;;;;;;6206985;23;20008;-81
2022/05/20 03:53:14;;;;;;;2.28;1.13;;;10.20;99.90;;;;;;6205638;23;20016;-82
2022/05/20 03:55:40;;;;;;;1.42;1.27;;;10.30;99.90;;;;;;6206840;23;20063;-80
2022/05/20 03:58:05;;;;;;;5.53;1.20;;;10.20;99.90;;;;;;6207481;23;20008;-80
2022/05/20 04:01:56;;;;;;;4.90;1.30;;;10.20;99.90;;;;;;6207282;23;20026;-81
2022/05/20 04:03:18;;;;;;;4.38;1.30;;;10.20;99.90;;;;;;6206835;23;20342;-80
2022/05/20 04:05:44;;;;;;;1.15;1.05;;;10.30;99.90;;;;;;6207190;23;20016;-82
2022/05/20 04:08:10;;;;;;;2.65;1.20;;;10.30;99.90;;;;;;6207130;23;20005;-84
2022/05/20 04:10:35;;;;;;;2.00;1.25;;;10.40;99.90;;;;;;6206819;23;20387;-84
2022/05/20 04:13:01;;;;;;;6.47;1.50;;;10.50;99.90;;;;;;6208272;23;20351;-86
2022/05/20 04:15:26;;;;;;;3.95;1.40;;;10.60;99.90;;;;;;6207036;23;20015;-84
2022/05/20 04:17:52;;;;;;;2.00;1.42;;;10.70;99.90;;;;;;6207685;23;20028;-85
2022/05/20 04:20:18;;;;;;;1.58;1.30;;;10.80;99.90;;;;;;6208842;23;20012;-86
2022/05/20 04:22:45;;;;;;;2.33;1.55;;;10.90;99.90;;;;;;6206277;23;20004;-85
2022/05/20 04:25:11;;;;;;;5.13;1.27;;;11.00;99.90;;;;;;6207308;23;20346;-87
2022/05/20 04:27:38;;;;;;;1.52;1.42;;;11.00;99.90;;;;;;6206318;23;20155;-85
2022/05/20 04:30:04;;;;;;;1.58;1.17;;;11.20;99.90;;;;;;6178421;23;20013;-82
2022/05/20 04:32:30;;;;;;;1.90;1.70;;;11.20;99.90;;;;;;6206675;23;20024;-81
2022/05/20 04:34:56;;;;;;;3.00;1.77;;;11.20;99.90;;;;;;6207335;23;20052;-81
2022/05/20 04:37:23;;;;;;;6.93;1.63;;;11.40;99.90;;;;;;6206842;23;20020;-84
2022/05/20 04:39:49;;;;;;;2.33;1.58;;;11.40;99.90;;;;;;6205537;23;20101;-84
2022/05/20 04:47:44;;;;;;;4.82;1.55;;;11.70;99.90;;;;;;6207027;23;20020;-81
2022/05/20 04:50:10;;;;;;;6.18;1.63;;;11.80;99.90;;;;;;6205115;23;20013;-85
2022/05/20 04:52:36;;;;;;;5.25;1.50;;;11.80;99.70;;;;;;6206697;23;20307;-88
2022/05/20 04:55:02;;;;;;;1.63;1.10;;;11.90;99.50;;;;;;6206547;23;20028;-86
2022/05/20 04:57:28;;;;;;;2.38;1.20;;;12.00;99.30;;;;;;6205669;23;20484;-80
2022/05/20 05:00:08;;;;;;;1.90;1.50;;;12.10;99.60;;;;;;6206722;23;20143;-83
2022/05/20 05:02:34;;;;;;;5.05;1.88;;;12.10;99.90;;;;;;6206863;23;19996;-79
2022/05/20 05:05:00;;;;;;;1.85;1.25;;;12.30;99.90;;;;;;6206370;23;20008;-81
2022/05/20 05:07:26;;;;;;;1.25;1.05;;;12.50;99.70;;;;;;6205912;23;20016;-86
2022/05/20 05:09:53;;;;;;;4.78;1.55;;;12.60;98.60;;;;;;6180143;23;20612;-79
2022/05/20 05:12:19;;;;;;;2.80;1.35;;;12.70;97.50;;;;;;6204551;23;20027;-83
2022/05/20 05:14:49;;;;;;;2.33;1.40;;;12.80;97.50;;;;;;6206030;23;20012;-79
2022/05/20 05:18:09;;;;;;;3.92;1.33;;;13.00;98.00;;;;;;6206311;23;20011;-79
2022/05/20 05:20:06;;;;;;;5.40;1.40;;;13.20;97.80;;;;;;6206627;23;20095;-83
2022/05/20 05:22:32;;;;;;;2.15;1.20;;;13.40;97.40;;;;;;6206412;23;20012;-83
2022/05/20 05:31:13;;;;;;;2.20;1.33;;;14.00;97.30;;;;;;6217083;22;20032;-78
2022/05/20 05:33:38;;;;;;;2.40;1.60;;;14.20;96.80;;;;;;6205312;23;20338;-77
2022/05/20 05:36:04;;;;;;;3.75;1.67;;;14.40;97.30;;;;;;6207182;23;20027;-79
2022/05/20 05:38:30;;;;;;;3.47;2.08;;;14.60;97.00;;;;;;6208044;23;20009;-79
2022/05/20 05:40:55;;;;;;;2.15;1.60;;;14.80;96.70;;;;;;6207610;23;20036;-81
2022/05/20 05:43:22;;;;;;;6.32;1.77;;;15.10;96.90;;;;;;6208746;23;20016;-77
2022/05/20 05:45:47;;;;;;;2.90;1.42;;;15.20;96.20;;;;;;6208806;23;20013;-79
2022/05/20 05:48:15;;;;;;;4.28;1.35;;;15.30;95.80;;;;;;6209641;23;20370;-77
2022/05/20 05:50:41;;;;;;;3.15;1.30;;;15.40;96.00;;;;;;6209653;23;20015;-81
2022/05/20 05:53:08;;;;;;;4.43;1.10;;;15.50;95.80;;;;;;6209369;23;20322;-76
2022/05/20 05:55:34;;;;;;;4.55;1.40;;;15.60;95.30;;;;;;6209960;23;20079;-76
2022/05/20 05:58:00;;;;;;;1.98;1.55;;;15.70;94.80;;;;;;6182854;23;20170;-77
2022/05/20 06:00:26;;;;;;;3.90;1.58;;;15.80;95.20;;;;;;6210219;23;20100;-77
2022/05/20 06:02:53;;;;;;;3.65;1.50;;;16.00;94.80;;;;;;6207751;23;20000;-79
2022/05/20 06:05:19;;;;;;;1.70;1.42;;;16.20;94.30;;;;;;6211681;23;20103;-78
2022/05/20 06:07:45;;;;;;;5.93;1.40;;;16.40;93.70;;;;;;6209228;23;20001;-80
2022/05/20 06:10:11;;;;;;;5.45;1.50;;;16.60;93.10;;;;;;6210511;23;20298;-77
2022/05/20 06:12:37;;;;;;;3.33;1.60;;;16.90;92.40;;;;;;6208872;23;20007;-80
2022/05/20 06:15:09;;;;;;;5.30;1.40;;;17.10;92.80;;;;;;6210065;23;20493;-81
2022/05/20 06:17:34;;;;;;;3.83;1.80;;;17.40;93.20;;;;;;6208779;23;20406;-80
2022/05/20 06:20:01;;;;;;;5.13;1.90;;;17.70;92.10;;;;;;6208357;23;20019;-80
2022/05/20 06:22:27;;;;;;;4.75;1.20;;;17.90;91.30;;;;;;6182767;23;20549;-78
2022/05/20 06:24:53;;;;;;;5.78;1.92;;;18.00;91.60;;;;;;6208812;23;20000;-82
2022/05/20 06:27:19;;;;;;;5.05;1.38;;;18.20;90.20;;;;;;6182809;23;20008;-79
2022/05/20 06:29:49;;;;;;;5.13;1.10;;;18.30;86.10;;;;;;6208979;23;20013;-76
2022/05/20 06:32:15;;;;;;;2.05;1.00;;;18.30;82.50;;;;;;6209339;23;20509;-79
2022/05/20 06:40:16;;;;;;;4.50;1.33;;;18.50;79.80;;;;;;6210369;23;20430;-80
2022/05/20 06:42:45;;;;;;;2.83;1.30;;;18.50;79.90;;;;;;6209147;23;20001;-79
2022/05/20 06:45:13;;;;;;;2.70;1.27;;;18.50;79.90;;;;;;6209886;23;20009;-83
2022/05/20 06:47:42;;;;;;;3.10;1.40;;;18.60;79.40;;;;;;6209017;23;20003;-87
2022/05/20 06:50:10;;;;;;;4.18;1.65;;;18.60;80.00;;;;;;6208000;23;20116;-81
2022/05/20 06:52:36;;;;;;;2.25;1.10;;;18.50;77.80;;;;;;6208702;23;20729;-81
2022/05/20 06:55:02;;;;;;;10.10;1.70;;;18.50;78.30;;;;;;6209049;23;20005;-78
2022/05/20 06:57:28;;;;;;;4.57;1.50;;;18.60;78.10;;;;;;6208626;23;20059;-78
2022/05/20 06:59:54;;;;;;;2.95;1.17;;;18.70;79.10;;;;;;6208985;23;20020;-77
2022/05/20 07:02:19;;;;;;;1.52;1.30;;;18.80;76.80;;;;;;6209221;23;20020;-76
2022/05/20 07:04:45;;;;;;;6.18;1.80;;;18.90;76.50;;;;;;6208793;23;20019;-77
2022/05/20 07:07:11;;;;;;;2.38;1.20;;;19.00;76.70;;;;;;6207358;23;20012;-77
2022/05/20 07:09:37;;;;;;;3.47;1.73;;;19.10;76.90;;;;;;6182279;23;20051;-76
2022/05/20 07:12:04;;;;;;;3.90;1.33;;;19.30;76.10;;;;;;6208771;23;20005;-80
2022/05/20 07:14:30;;;;;;;1.25;0.88;;;19.40;71.50;;;;;;6209714;23;20698;-76
2022/05/20 07:16:55;;;;;;;5.47;1.15;;;19.50;73.70;;;;;;6208659;23;20008;-80
2022/05/20 07:19:21;;;;;;;2.85;1.25;;;19.60;72.60;;;;;;6208267;23;20012;-81
2022/05/20 07:21:47;;;;;;;3.00;1.23;;;19.70;73.20;;;;;;6209343;23;20438;-77
2022/05/20 07:24:12;;;;;;;1.63;1.27;;;19.90;72.10;;;;;;6208116;23;20000;-78
2022/05/20 07:26:38;;;;;;;4.35;1.15;;;20.10;69.90;;;;;;6208570;23;20007;-78
2022/05/20 07:29:05;;;;;;;3.42;0.95;;;20.20;68.50;;;;;;6209113;23;20058;-78
2022/05/20 07:31:31;;;;;;;3.35;1.15;;;20.40;69.00;;;;;;6223083;23;20571;-77
2022/05/20 07:33:57;;;;;;;3.40;1.35;;;20.50;66.80;;;;;;6238470;23;20075;-78
2022/05/20 07:36:23;;;;;;;1.77;1.08;;;20.60;68.40;;;;;;6212634;23;20012;-78
2022/05/20 07:38:50;;;;;;;1.73;1.00;;;20.80;67.40;;;;;;6238144;23;20004;-77
2022/05/20 07:41:15;;;;;;;3.15;1.35;;;21.00;66.40;;;;;;6238678;23;20016;-78
2022/05/20 07:43:41;;;;;;;3.50;1.38;;;21.00;65.50;;;;;;6239543;23;20004;-79
2022/05/20 07:46:07;;;;;;;2.65;1.35;;;21.00;63.10;;;;;;6239106;23;20008;-79
2022/05/20 07:48:33;;;;;;;2.25;1.52;;;20.90;63.80;;;;;;6239292;23;20004;-83
2022/05/20 07:51:07;;;;;;;2.35;1.40;;;21.00;64.80;;;;;;6238571;23;20043;-85
2022/05/20 07:53:39;;;;;;;4.00;1.30;;;21.10;62.80;;;;;;6238994;23;20003;-78
2022/05/20 07:56:18;;;;;;;1.20;1.00;;;21.10;63.20;;;;;;6238703;23;20007;-78
2022/05/20 07:58:48;;;;;;;2.58;1.15;;;21.20;62.50;;;;;;6238984;23;19998;-81
2022/05/20 08:01:16;;;;;;;1.83;1.17;;;21.20;63.70;;;;;;6238647;23;20058;-79
2022/05/20 08:06:26;;;;;;;5.18;1.30;;;21.10;64.00;;;;;;6239128;23;20453;-76
2022/05/20 08:08:54;;;;;;;2.33;1.20;;;21.20;64.30;;;;;;6237688;23;20000;-76
2022/05/20 08:11:19;;;;;;;2.70;0.90;;;21.40;60.40;;;;;;6238192;23;20008;-77
2022/05/20 08:13:45;;;;;;;4.28;1.30;;;21.30;62.40;;;;;;6238549;23;20705;-76
2022/05/20 08:16:10;;;;;;;2.15;1.00;;;21.40;64.10;;;;;;6238758;23;20015;-77
2022/05/20 08:18:36;;;;;;;4.30;1.50;;;21.50;61.70;;;;;;6238155;23;20115;-78
2022/05/20 08:21:02;;;;;;;3.10;1.00;;;21.60;62.30;;;;;;6238596;23;20098;-78
2022/05/20 08:23:27;;;;;;;3.22;1.10;;;21.70;61.70;;;;;;6238383;23;20010;-77
2022/05/20 08:25:53;;;;;;;5.10;1.08;;;21.70;61.50;;;;;;6238376;23;20008;-82
2022/05/20 08:28:19;;;;;;;11.45;1.30;;;21.80;59.40;;;;;;6237878;23;20004;-79
2022/05/20 08:30:45;;;;;;;1.50;1.00;;;21.70;60.50;;;;;;6238313;23;20012;-81
2022/05/20 08:33:11;;;;;;;2.08;0.93;;;21.80;58.10;;;;;;6237734;23;20008;-79
2022/05/20 08:35:36;;;;;;;1.45;1.20;;;21.80;58.90;;;;;;6238482;23;20000;-77
2022/05/20 08:38:04;;;;;;;2.10;1.10;;;21.90;58.90;;;;;;6238306;23;20015;-81
2022/05/20 08:40:35;;;;;;;4.00;1.20;;;22.00;57.30;;;;;;6212063;23;20513;-79
2022/05/20 08:43:01;;;;;;;3.60;1.17;;;22.00;57.30;;;;;;6238389;23;20369;-78
2022/05/20 08:45:29;;;;;;;2.08;1.20;;;22.10;58.10;;;;;;6238123;23;20321;-76
2022/05/20 08:47:56;;;;;;;4.85;1.48;;;22.20;59.10;;;;;;6237708;23;19999;-78
2022/05/20 08:50:25;;;;;;;2.83;1.50;;;22.40;57.70;;;;;;6238126;23;20004;-81
2022/05/20 08:52:54;;;;;;;4.75;1.10;;;22.30;57.30;;;;;;6237460;23;19997;-79
2022/05/20 08:55:20;;;;;;;4.65;1.10;;;22.20;57.80;;;;;;6238278;23;20012;-81
2022/05/20 08:57:51;;;;;;;2.50;1.17;;;22.20;58.50;;;;;;6238545;23;20035;-80
2022/05/20 09:00:18;;;;;;;1.95;1.23;;;22.30;57.10;;;;;;6238618;23;20008;-82
2022/05/20 09:02:44;;;;;;;2.35;1.10;;;22.30;57.10;;;;;;6237418;23;20011;-81
2022/05/20 09:05:28;;;;;;;4.50;1.20;;;22.30;56.80;;;;;;6238405;23;19996;-78
2022/05/20 09:08:03;;;;;;;3.88;1.10;;;22.40;57.80;;;;;;6237053;23;20001;-78
2022/05/20 09:10:36;;;;;;;4.55;1.13;;;22.50;57.40;;;;;;6237760;23;20441;-74
2022/05/20 09:13:07;;;;;;;4.05;1.30;;;22.70;56.40;;;;;;6238601;23;19993;-80
2022/05/20 09:15:46;;;;;;;2.80;1.00;;;22.70;56.70;;;;;;6238130;23;20331;-78
2022/05/20 09:18:31;;;;;;;1.98;1.35;;;22.60;56.50;;;;;;6239029;23;20425;-82
2022/05/20 09:20:57;;;;;;;2.00;1.42;;;22.70;56.20;;;;;;6239616;23;20428;-78
2022/05/20 09:23:25;;;;;;;2.72;1.15;;;22.80;56.70;;;;;;6239880;23;20014;-77
2022/05/20 09:25:56;;;;;;;2.63;1.20;;;22.80;54.40;;;;;;6239990;23;20004;-78
2022/05/20 09:28:31;;;;;;;3.38;1.17;;;22.80;54.60;;;;;;6240362;23;20004;-82
2022/05/20 09:31:32;;;;;;;4.72;0.88;;;22.90;53.30;;;;;;6239911;23;20372;-78
2022/05/20 09:34:39;;;;;;;3.30;1.05;;;23.00;53.00;;;;;;6239377;23;20341;-78
2022/05/20 09:37:10;;;;;;;2.60;1.05;;;23.10;53.60;;;;;;6240484;23;20007;-87
2022/05/20 09:39:39;;;;;;;3.15;1.20;;;23.10;54.10;;;;;;6239523;23;20022;-81
2022/05/20 09:42:11;;;;;;;1.90;1.15;;;23.20;54.20;;;;;;6239623;23;20380;-81
2022/05/20 09:44:40;;;;;;;2.25;1.00;;;23.10;53.70;;;;;;6239999;23;20086;-81
2022/05/20 09:47:28;;;;;;;10.25;1.30;;;23.10;52.10;;;;;;6239766;23;20004;-83
2022/05/20 09:50:02;;;;;;;4.20;1.02;;;23.10;51.90;;;;;;6238876;23;20084;-78
2022/05/20 09:53:24;;;;;;;3.65;1.25;;;23.30;53.00;;;;;;6239477;23;20066;-80
2022/05/20 09:55:50;;;;;;;2.88;0.90;;;23.50;54.00;;;;;;6171761;23;20099;-82
2022/05/20 09:58:27;;;;;;;1.95;1.08;;;23.60;52.10;;;;;;6239808;23;20085;-84
2022/05/20 10:01:24;;;;;;;4.90;1.67;;;23.70;53.00;;;;;;6239978;23;20016;-81
2022/05/20 10:03:57;;;;;;;3.13;1.33;;;23.80;53.00;;;;;;6231066;23;20051;-79
2022/05/20 10:06:37;;;;;;;3.08;1.20;;;23.80;53.50;;;;;;6239669;23;20016;-80
2022/05/20 10:09:12;;;;;;;4.10;1.55;;;23.80;54.60;;;;;;6240086;23;20368;-81
2022/05/20 10:11:54;;;;;;;2.72;1.27;;;23.90;55.70;;;;;;6239771;23;20008;-81
2022/05/20 10:14:34;;;;;;;3.17;1.55;;;23.90;52.70;;;;;;6240196;23;20012;-80
2022/05/20 10:17:14;;;;;;;3.75;1.33;;;23.90;55.30;;;;;;6239935;23;20016;-82
2022/05/20 10:20:03;;;;;;;3.22;1.20;;;24.00;55.20;;;;;;6238446;23;20007;-79
2022/05/20 10:23:03;;;;;;;2.67;1.40;;;24.10;55.10;;;;;;6219581;23;20321;-78
2022/05/20 10:25:48;;;;;;;3.22;1.30;;;24.10;54.10;;;;;;6239657;23;20098;-81
2022/05/20 10:34:14;;;;;;;6.10;1.30;;;24.30;55.90;;;;;;6239189;23;20432;-78
2022/05/20 10:37:03;;;;;;;2.65;1.20;;;24.30;54.50;;;;;;6239703;23;20008;-80
2022/05/20 10:39:50;;;;;;;2.97;1.20;;;24.40;55.30;;;;;;6239096;23;20015;-82
2022/05/20 10:42:58;;;;;;;2.17;1.52;;;24.50;54.40;;;;;;6239863;23;20004;-78
2022/05/20 10:48:56;;;;;;;1.35;1.25;;;24.50;55.00;;;;;;6238661;23;20019;-77
2022/05/20 10:51:51;;;;;;;7.60;1.40;;;24.60;56.20;;;;;;6240126;23;20837;-78
2022/05/20 10:54:46;;;;;;;3.20;1.30;;;24.70;55.00;;;;;;6239077;23;20146;-78
2022/05/20 10:57:12;;;;;;;2.33;1.33;;;24.50;53.00;;;;;;6239566;23;20373;-85
2022/05/20 11:00:06;;;;;;;2.13;1.27;;;24.50;54.50;;;;;;6239281;23;20015;-79
2022/05/20 11:02:59;;;;;;;2.25;1.10;;;24.50;53.90;;;;;;6239002;23;20012;-75
2022/05/20 11:05:53;;;;;;;1.63;1.38;;;24.50;55.80;;;;;;6238241;23;20023;-77
2022/05/20 11:09:03;;;;;;;3.72;1.23;;;24.60;55.00;;;;;;6239160;23;20007;-77
2022/05/20 11:11:41;;;;;;;6.75;1.35;;;24.80;57.50;;;;;;6168989;23;20043;-77
2022/05/20 11:14:42;;;;;;;2.10;1.20;;;25.00;56.00;;;;;;6238740;23;20708;-83
2022/05/20 11:17:32;;;;;;;5.72;1.20;;;25.00;54.70;;;;;;6239256;23;20325;-84
2022/05/20 11:20:25;;;;;;;2.90;1.08;;;24.90;54.30;;;;;;6238291;23;20012;-80
2022/05/20 11:23:14;;;;;;;5.45;1.50;;;24.90;55.50;;;;;;6238497;23;20030;-84
2022/05/20 11:26:16;;;;;;;3.10;1.23;;;25.00;54.50;;;;;;6238991;23;20035;-76
2022/05/20 11:29:09;;;;;;;4.50;1.30;;;25.10;54.40;;;;;;6238105;23;20015;-80
2022/05/20 11:32:03;;;;;;;5.13;1.30;;;25.20;54.90;;;;;;6239110;23;20042;-79
2022/05/20 11:35:04;;;;;;;1.45;1.10;;;25.30;53.40;;;;;;6239251;23;20007;-80
2022/05/20 11:37:49;;;;;;;5.55;1.20;;;25.40;53.40;;;;;;6238800;23;20283;-78
2022/05/20 11:41:02;;;;;;;3.28;1.27;;;25.40;53.30;;;;;;6237722;23;20020;-83
2022/05/20 11:44:01;;;;;;;1.20;1.00;;;25.40;52.50;;;;;;6232959;23;20087;-84
2022/05/20 11:46:47;;;;;;;5.88;1.50;;;25.30;54.20;;;;;;6239089;23;20003;-83
2022/05/20 11:49:22;;;;;;;4.22;1.20;;;25.50;54.40;;;;;;6238271;23;20007;-78
2022/05/20 11:52:08;;;;;;;5.45;1.40;;;25.60;52.90;;;;;;6238725;23;20047;-78
2022/05/20 11:54:52;;;;;;;2.85;1.38;;;25.60;53.70;;;;;;6242276;23;20429;-79
2022/05/20 11:57:22;;;;;;;1.58;0.90;;;25.60;54.00;;;;;;6237569;23;20036;-81
2022/05/20 12:00:13;;;;;;;3.95;1.20;;;25.70;53.80;;;;;;6239118;23;20027;-85
2022/05/20 12:02:54;;;;;;;2.00;1.20;;;25.80;53.60;;;;;;6239022;23;20329;-80
2022/05/20 12:05:24;;;;;;;1.85;1.08;;;25.70;52.70;;;;;;6238808;23;20028;-82
2022/05/20 12:07:50;;;;;;;6.40;1.30;;;25.60;53.10;;;;;;6238441;23;20374;-79
2022/05/20 12:10:31;;;;;;;3.35;1.17;;;25.60;53.30;;;;;;6238991;23;20011;-80
2022/05/20 12:13:25;;;;;;;3.65;1.25;;;25.70;54.20;;;;;;6237927;23;20004;-80
2022/05/20 12:16:09;;;;;;;4.90;1.60;;;25.80;52.90;;;;;;6238393;23;20070;-78
2022/05/20 12:25:30;;;;;;;1.92;1.17;;;26.10;52.40;;;;;;6238859;23;20015;-79
2022/05/20 12:28:08;;;;;;;4.93;1.35;;;26.10;52.30;;;;;;6238764;23;20070;-79
2022/05/20 12:30:45;;;;;;;2.58;1.30;;;26.20;51.50;;;;;;6238785;23;20381;-82
2022/05/20 12:33:23;;;;;;;4.60;1.40;;;26.30;51.80;;;;;;6238797;23;20072;-83
2022/05/20 12:36:26;;;;;;;2.45;1.00;;;26.20;50.90;;;;;;6238200;23;20008;-83
2022/05/20 12:39:14;;;;;;;2.67;1.20;;;26.00;51.70;;;;;;6237503;23;20042;-84
2022/05/20 12:41:49;;;;;;;1.85;0.93;;;26.00;51.20;;;;;;6237717;23;20552;-82
2022/05/20 12:44:17;;;;;;;2.03;0.98;;;26.00;52.20;;;;;;6237728;23;20023;-80
2022/05/20 12:46:58;;;;;;;2.63;0.93;;;26.20;51.70;;;;;;6238268;23;20000;-80
2022/05/20 12:49:27;;;;;;;3.08;1.23;;;26.40;51.50;;;;;;6238156;23;20000;-79
2022/05/20 12:51:54;;;;;;;5.57;1.10;;;26.40;51.50;;;;;;6239568;23;20499;-79
2022/05/20 12:54:22;;;;;;;1.48;1.33;;;26.50;51.50;;;;;;6241783;23;20062;-81
2022/05/20 12:56:55;;;;;;;6.85;1.17;;;26.60;53.20;;;;;;6241809;23;20075;-78
2022/05/20 12:59:23;;;;;;;3.42;1.30;;;26.60;52.30;;;;;;6241698;23;20647;-78
2022/05/20 13:01:56;;;;;;;6.03;1.80;;;26.80;53.90;;;;;;6241143;23;20004;-77
2022/05/20 13:04:23;;;;;;;3.67;1.60;;;26.80;52.00;;;;;;6241446;23;20000;-78
2022/05/20 13:06:49;;;;;;;2.65;1.10;;;26.80;50.60;;;;;;6243733;23;20087;-78
2022/05/20 13:09:24;;;;;;;1.02;0.90;;;26.80;52.50;;;;;;6241794;23;20000;-80
2022/05/20 13:11:51;;;;;;;1.92;1.20;;;26.80;53.60;;;;;;6241916;23;20012;-80
2022/05/20 13:14:18;;;;;;;2.78;1.25;;;26.90;51.30;;;;;;6242629;23;20161;-79
2022/05/20 13:17:11;;;;;;;4.97;1.33;;;26.90;51.80;;;;;;6239779;23;20345;-75
2022/05/20 13:19:52;;;;;;;3.55;1.50;;;27.00;51.80;;;;;;6231779;23;20039;-81
2022/05/20 13:22:22;;;;;;;2.70;1.17;;;27.20;51.80;;;;;;6240002;23;20004;-79
2022/05/20 13:24:53;;;;;;;1.75;1.30;;;27.30;51.80;;;;;;6240834;23;20897;-78
2022/05/20 13:27:21;;;;;;;4.85;1.60;;;27.20;51.70;;;;;;6212096;23;20008;-73
2022/05/20 13:29:49;;;;;;;4.85;1.35;;;27.10;51.00;;;;;;6241690;23;20356;-74
2022/05/20 13:32:29;;;;;;;4.00;1.25;;;27.00;51.70;;;;;;6240328;23;20020;-74
2022/05/20 13:34:58;;;;;;;2.42;1.20;;;27.10;51.90;;;;;;6240389;23;20622;-71
2022/05/20 13:37:37;;;;;;;2.40;1.40;;;27.10;51.40;;;;;;6246570;23;20071;-73
2022/05/20 13:40:37;;;;;;;4.68;1.88;;;27.10;52.20;;;;;;6248262;23;20016;-79
2022/05/20 13:43:03;;;;;;;5.03;1.70;;;27.10;51.60;;;;;;6252780;23;20064;-80
2022/05/20 13:51:30;;;;;;;3.13;0.93;;;27.40;52.20;;;;;;6253623;23;20042;-77
2022/05/20 13:54:00;;;;;;;2.25;1.20;;;27.50;52.10;;;;;;6249718;23;20027;-70
2022/05/20 13:56:33;;;;;;;2.28;1.27;;;27.50;52.50;;;;;;6253257;23;20538;-77
2022/05/20 13:59:16;;;;;;;3.88;1.30;;;27.50;51.90;;;;;;6253130;23;20053;-75
2022/05/20 14:01:47;;;;;;;3.92;1.20;;;27.50;52.90;;;;;;6252589;23;20036;-78
2022/05/20 14:04:13;;;;;;;2.97;1.30;;;27.60;52.60;;;;;;6251365;23;20004;-80